sensor_id;sensor_type;location;lat;lon;timestamp;pressure;altitude;pressure_sealevel;temperature;humidity
39223;BME280;24936;46.328;11.026;2023-11-21T00:01:35;93744.63;;;0.21;100.00
39223;BME280;24936;46.328;11.026;2023-11-21T00:04:00;93744.28;;;0.27;100.00
39223;BME280;24936;46.328;11.026;2023-11-21T00:06:26;93742.59;;;0.40;100.00
39223;BME280;24936;46.328;11.026;2023-11-21T00:08:52;93746.31;;;0.49;100.00
39223;BME280;24936;46.328;11.026;2023-11-21T00:11:17;93736.56;;;0.40;100.00
39223;BME280;24936;46.328;11.026;2023-11-21T00:13:43;93735.94;;;0.22;100.00
39223;BME280;24936;46.328;11.026;2023-11-21T00:16:09;93739.47;;;0.06;100.00
39223;BME280;24936;46.328;11.026;2023-11-21T00:18:34;93728.69;;;-0.01;100.00
39223;BME280;24936;46.328;11.026;2023-11-21T00:20:59;93740.69;;;0.15;100.00
39223;BME280;24936;46.328;11.026;2023-11-21T00:23:25;93732.44;;;0.23;100.00
39223;BME280;24936;46.328;11.026;2023-11-21T00:25:50;93725.13;;;0.29;100.00
39223;BME280;24936;46.328;11.026;2023-11-21T00:28:16;93729.97;;;0.07;100.00
39223;BME280;24936;46.328;11.026;2023-11-21T00:30:41;93727.31;;;-0.06;100.00
39223;BME280;24936;46.328;11.026;2023-11-21T00:33:07;93727.88;;;-0.16;100.00
39223;BME280;24936;46.328;11.026;2023-11-21T00:35:32;93726.50;;;-0.21;100.00
39223;BME280;24936;46.328;11.026;2023-11-21T00:37:57;93721.31;;;-0.21;100.00
39223;BME280;24936;46.328;11.026;2023-11-21T00:40:23;93733.22;;;-0.33;100.00
39223;BME280;24936;46.328;11.026;2023-11-21T00:42:49;93718.53;;;-0.47;100.00
39223;BME280;24936;46.328;11.026;2023-11-21T00:45:15;93724.44;;;-0.59;100.00
39223;BME280;24936;46.328;11.026;2023-11-21T00:47:41;93718.63;;;-0.34;100.00
39223;BME280;24936;46.328;11.026;2023-11-21T00:50:09;93734.13;;;-0.49;100.00
39223;BME280;24936;46.328;11.026;2023-11-21T00:52:34;93737.19;;;-0.56;100.00
39223;BME280;24936;46.328;11.026;2023-11-21T00:55:01;93736.59;;;-0.62;100.00
39223;BME280;24936;46.328;11.026;2023-11-21T00:57:28;93725.56;;;-0.64;100.00
39223;BME280;24936;46.328;11.026;2023-11-21T00:59:53;93720.75;;;-0.55;100.00
39223;BME280;24936;46.328;11.026;2023-11-21T01:02:19;93722.75;;;-0.60;100.00
39223;BME280;24936;46.328;11.026;2023-11-21T01:04:45;93721.56;;;-0.55;100.00
39223;BME280;24936;46.328;11.026;2023-11-21T01:07:10;93728.03;;;-0.62;100.00
39223;BME280;24936;46.328;11.026;2023-11-21T01:09:36;93738.72;;;-0.68;100.00
39223;BME280;24936;46.328;11.026;2023-11-21T01:12:01;93731.81;;;-0.68;100.00
39223;BME280;24936;46.328;11.026;2023-11-21T01:14:27;93739.66;;;-0.55;100.00
39223;BME280;24936;46.328;11.026;2023-11-21T01:16:53;93735.78;;;-0.62;100.00
39223;BME280;24936;46.328;11.026;2023-11-21T01:19:18;93730.72;;;-0.64;100.00
39223;BME280;24936;46.328;11.026;2023-11-21T01:21:44;93716.94;;;-0.64;100.00
39223;BME280;24936;46.328;11.026;2023-11-21T01:24:09;93713.25;;;-0.74;100.00
39223;BME280;24936;46.328;11.026;2023-11-21T01:26:35;93716.28;;;-0.82;100.00
39223;BME280;24936;46.328;11.026;2023-11-21T01:29:00;93717.03;;;-0.80;100.00
39223;BME280;24936;46.328;11.026;2023-11-21T01:31:26;93721.34;;;-0.81;100.00
39223;BME280;24936;46.328;11.026;2023-11-21T01:33:56;93722.94;;;-0.78;100.00
39223;BME280;24936;46.328;11.026;2023-11-21T01:36:21;93721.03;;;-0.90;100.00
39223;BME280;24936;46.328;11.026;2023-11-21T01:38:47;93723.09;;;-0.96;100.00
39223;BME280;24936;46.328;11.026;2023-11-21T01:41:13;93721.03;;;-1.05;100.00
39223;BME280;24936;46.328;11.026;2023-11-21T01:43:39;93728.53;;;-1.16;100.00
39223;BME280;24936;46.328;11.026;2023-11-21T01:46:05;93726.22;;;-1.21;100.00
39223;BME280;24936;46.328;11.026;2023-11-21T01:48:31;93731.72;;;-1.11;100.00
39223;BME280;24936;46.328;11.026;2023-11-21T01:50:58;93729.91;;;-0.95;100.00
39223;BME280;24936;46.328;11.026;2023-11-21T01:53:26;93731.91;;;-1.00;100.00
39223;BME280;24936;46.328;11.026;2023-11-21T01:55:54;93729.94;;;-1.11;100.00
39223;BME280;24936;46.328;11.026;2023-11-21T01:58:20;93731.31;;;-1.19;100.00
39223;BME280;24936;46.328;11.026;2023-11-21T02:00:47;93735.06;;;-1.25;100.00
39223;BME280;24936;46.328;11.026;2023-11-21T02:03:15;93728.00;;;-1.21;100.00
39223;BME280;24936;46.328;11.026;2023-11-21T02:05:41;93727.84;;;-1.34;100.00
39223;BME280;24936;46.328;11.026;2023-11-21T02:08:07;93718.16;;;-1.31;100.00
39223;BME280;24936;46.328;11.026;2023-11-21T02:10:34;93716.84;;;-1.38;100.00
39223;BME280;24936;46.328;11.026;2023-11-21T02:13:02;93728.38;;;-1.44;100.00
39223;BME280;24936;46.328;11.026;2023-11-21T02:15:28;93734.19;;;-1.40;100.00
39223;BME280;24936;46.328;11.026;2023-11-21T02:17:54;93724.06;;;-1.13;100.00
39223;BME280;24936;46.328;11.026;2023-11-21T02:20:23;93719.38;;;-1.06;100.00
39223;BME280;24936;46.328;11.026;2023-11-21T02:22:53;93720.72;;;-1.15;100.00
39223;BME280;24936;46.328;11.026;2023-11-21T02:25:27;93712.84;;;-1.28;100.00
39223;BME280;24936;46.328;11.026;2023-11-21T02:27:59;93707.13;;;-1.18;100.00
39223;BME280;24936;46.328;11.026;2023-11-21T02:30:25;93707.59;;;-1.26;100.00
39223;BME280;24936;46.328;11.026;2023-11-21T02:32:51;93695.34;;;-1.39;100.00
39223;BME280;24936;46.328;11.026;2023-11-21T02:35:20;93703.72;;;-1.49;100.00
39223;BME280;24936;46.328;11.026;2023-11-21T02:37:51;93702.22;;;-1.54;100.00
39223;BME280;24936;46.328;11.026;2023-11-21T02:40:16;93695.31;;;-1.53;100.00
39223;BME280;24936;46.328;11.026;2023-11-21T02:42:50;93684.59;;;-1.61;100.00
39223;BME280;24936;46.328;11.026;2023-11-21T02:45:19;93680.59;;;-1.67;100.00
39223;BME280;24936;46.328;11.026;2023-11-21T02:47:46;93679.94;;;-1.71;100.00
39223;BME280;24936;46.328;11.026;2023-11-21T02:50:12;93685.53;;;-1.78;100.00
39223;BME280;24936;46.328;11.026;2023-11-21T02:52:38;93680.31;;;-1.93;100.00
39223;BME280;24936;46.328;11.026;2023-11-21T02:55:05;93676.81;;;-1.92;100.00
39223;BME280;24936;46.328;11.026;2023-11-21T02:57:32;93671.03;;;-1.81;100.00
39223;BME280;24936;46.328;11.026;2023-11-21T02:59:58;93674.69;;;-1.69;100.00
39223;BME280;24936;46.328;11.026;2023-11-21T03:02:25;93673.94;;;-1.71;100.00
39223;BME280;24936;46.328;11.026;2023-11-21T03:04:50;93671.56;;;-1.74;100.00
39223;BME280;24936;46.328;11.026;2023-11-21T03:07:16;93669.53;;;-1.69;100.00
39223;BME280;24936;46.328;11.026;2023-11-21T03:09:45;93668.78;;;-1.71;100.00
39223;BME280;24936;46.328;11.026;2023-11-21T03:12:11;93668.13;;;-1.75;100.00
39223;BME280;24936;46.328;11.026;2023-11-21T03:14:38;93664.31;;;-1.83;100.00
39223;BME280;24936;46.328;11.026;2023-11-21T03:17:03;93663.38;;;-1.82;100.00
39223;BME280;24936;46.328;11.026;2023-11-21T03:19:30;93666.50;;;-1.92;100.00
39223;BME280;24936;46.328;11.026;2023-11-21T03:21:55;93665.16;;;-1.99;100.00
39223;BME280;24936;46.328;11.026;2023-11-21T03:24:21;93654.34;;;-2.06;100.00
39223;BME280;24936;46.328;11.026;2023-11-21T03:26:48;93649.44;;;-2.10;100.00
39223;BME280;24936;46.328;11.026;2023-11-21T03:29:14;93654.69;;;-2.12;100.00
39223;BME280;24936;46.328;11.026;2023-11-21T03:31:40;93656.81;;;-2.20;100.00
39223;BME280;24936;46.328;11.026;2023-11-21T03:34:06;93652.44;;;-2.34;100.00
39223;BME280;24936;46.328;11.026;2023-11-21T03:36:31;93653.28;;;-2.18;100.00
39223;BME280;24936;46.328;11.026;2023-11-21T03:38:57;93657.16;;;-2.10;100.00
39223;BME280;24936;46.328;11.026;2023-11-21T03:41:22;93644.13;;;-2.07;100.00
39223;BME280;24936;46.328;11.026;2023-11-21T03:43:48;93645.03;;;-2.24;100.00
39223;BME280;24936;46.328;11.026;2023-11-21T03:46:13;93645.44;;;-2.32;100.00
39223;BME280;24936;46.328;11.026;2023-11-21T03:48:40;93645.53;;;-2.18;100.00
39223;BME280;24936;46.328;11.026;2023-11-21T03:51:05;93643.78;;;-2.17;100.00
39223;BME280;24936;46.328;11.026;2023-11-21T03:53:31;93641.44;;;-2.06;100.00
39223;BME280;24936;46.328;11.026;2023-11-21T03:55:57;93655.56;;;-1.97;100.00
39223;BME280;24936;46.328;11.026;2023-11-21T03:58:23;93654.00;;;-2.00;100.00
39223;BME280;24936;46.328;11.026;2023-11-21T04:00:48;93656.00;;;-1.89;100.00
39223;BME280;24936;46.328;11.026;2023-11-21T04:03:16;93650.41;;;-1.97;100.00
39223;BME280;24936;46.328;11.026;2023-11-21T04:05:42;93651.16;;;-1.95;100.00
39223;BME280;24936;46.328;11.026;2023-11-21T04:08:07;93643.44;;;-1.95;100.00
39223;BME280;24936;46.328;11.026;2023-11-21T04:10:33;93642.34;;;-1.91;100.00
39223;BME280;24936;46.328;11.026;2023-11-21T04:12:59;93646.50;;;-1.88;100.00
39223;BME280;24936;46.328;11.026;2023-11-21T04:15:25;93639.09;;;-1.78;100.00
39223;BME280;24936;46.328;11.026;2023-11-21T04:17:51;93628.19;;;-1.83;100.00
39223;BME280;24936;46.328;11.026;2023-11-21T04:20:17;93645.44;;;-1.84;100.00
39223;BME280;24936;46.328;11.026;2023-11-21T04:22:43;93639.25;;;-1.81;100.00
39223;BME280;24936;46.328;11.026;2023-11-21T04:25:14;93637.00;;;-1.88;100.00
39223;BME280;24936;46.328;11.026;2023-11-21T04:27:41;93635.84;;;-1.98;100.00
39223;BME280;24936;46.328;11.026;2023-11-21T04:30:09;93631.13;;;-1.90;100.00
39223;BME280;24936;46.328;11.026;2023-11-21T04:32:35;93631.13;;;-1.90;100.00
39223;BME280;24936;46.328;11.026;2023-11-21T04:35:01;93630.84;;;-2.01;100.00
39223;BME280;24936;46.328;11.026;2023-11-21T04:37:26;93631.28;;;-2.09;100.00
39223;BME280;24936;46.328;11.026;2023-11-21T04:39:53;93630.31;;;-2.06;100.00
39223;BME280;24936;46.328;11.026;2023-11-21T04:42:19;93636.44;;;-2.09;100.00
39223;BME280;24936;46.328;11.026;2023-11-21T04:44:44;93640.88;;;-2.11;100.00
39223;BME280;24936;46.328;11.026;2023-11-21T04:47:10;93647.03;;;-1.97;100.00
39223;BME280;24936;46.328;11.026;2023-11-21T04:49:35;93643.84;;;-2.03;100.00
39223;BME280;24936;46.328;11.026;2023-11-21T04:52:01;93644.38;;;-2.12;100.00
39223;BME280;24936;46.328;11.026;2023-11-21T04:54:27;93642.03;;;-2.33;100.00
39223;BME280;24936;46.328;11.026;2023-11-21T04:56:55;93645.66;;;-2.37;100.00
39223;BME280;24936;46.328;11.026;2023-11-21T04:59:21;93638.19;;;-2.41;100.00
39223;BME280;24936;46.328;11.026;2023-11-21T05:01:50;93640.50;;;-2.53;100.00
39223;BME280;24936;46.328;11.026;2023-11-21T05:04:15;93643.44;;;-2.59;100.00
39223;BME280;24936;46.328;11.026;2023-11-21T05:06:40;93647.94;;;-2.47;100.00
39223;BME280;24936;46.328;11.026;2023-11-21T05:09:06;93638.38;;;-2.44;100.00
39223;BME280;24936;46.328;11.026;2023-11-21T05:11:36;93634.03;;;-2.44;100.00
39223;BME280;24936;46.328;11.026;2023-11-21T05:14:02;93630.06;;;-2.50;100.00
39223;BME280;24936;46.328;11.026;2023-11-21T05:16:29;93631.31;;;-2.41;100.00
39223;BME280;24936;46.328;11.026;2023-11-21T05:18:54;93632.22;;;-2.58;100.00
39223;BME280;24936;46.328;11.026;2023-11-21T05:21:26;93641.25;;;-2.67;100.00
39223;BME280;24936;46.328;11.026;2023-11-21T05:23:51;93637.44;;;-2.59;100.00
39223;BME280;24936;46.328;11.026;2023-11-21T05:26:17;93643.09;;;-2.53;100.00
39223;BME280;24936;46.328;11.026;2023-11-21T05:28:42;93652.59;;;-2.53;100.00
39223;BME280;24936;46.328;11.026;2023-11-21T05:31:07;93659.84;;;-2.78;100.00
39223;BME280;24936;46.328;11.026;2023-11-21T05:33:33;93656.72;;;-2.51;100.00
39223;BME280;24936;46.328;11.026;2023-11-21T05:35:58;93648.19;;;-2.35;100.00
39223;BME280;24936;46.328;11.026;2023-11-21T05:38:24;93649.75;;;-2.49;100.00
39223;BME280;24936;46.328;11.026;2023-11-21T05:40:49;93644.16;;;-2.57;100.00
39223;BME280;24936;46.328;11.026;2023-11-21T05:43:15;93655.47;;;-2.59;100.00
39223;BME280;24936;46.328;11.026;2023-11-21T05:45:40;93657.63;;;-2.68;100.00
39223;BME280;24936;46.328;11.026;2023-11-21T05:48:06;93653.41;;;-2.53;100.00
39223;BME280;24936;46.328;11.026;2023-11-21T05:50:31;93654.16;;;-2.51;100.00
39223;BME280;24936;46.328;11.026;2023-11-21T05:52:57;93650.91;;;-2.38;100.00
39223;BME280;24936;46.328;11.026;2023-11-21T05:55:25;93643.13;;;-2.21;100.00
39223;BME280;24936;46.328;11.026;2023-11-21T05:57:51;93643.03;;;-2.35;100.00
39223;BME280;24936;46.328;11.026;2023-11-21T06:00:16;93653.50;;;-2.38;100.00
39223;BME280;24936;46.328;11.026;2023-11-21T06:02:51;93649.91;;;-2.36;100.00
39223;BME280;24936;46.328;11.026;2023-11-21T06:05:21;93656.06;;;-2.22;100.00
39223;BME280;24936;46.328;11.026;2023-11-21T06:07:49;93649.59;;;-2.13;100.00
39223;BME280;24936;46.328;11.026;2023-11-21T06:10:14;93647.50;;;-2.07;100.00
39223;BME280;24936;46.328;11.026;2023-11-21T06:12:40;93645.84;;;-1.92;100.00
39223;BME280;24936;46.328;11.026;2023-11-21T06:15:10;93647.00;;;-1.81;100.00
39223;BME280;24936;46.328;11.026;2023-11-21T06:17:39;93638.16;;;-1.77;100.00
39223;BME280;24936;46.328;11.026;2023-11-21T06:20:08;93638.06;;;-1.76;100.00
39223;BME280;24936;46.328;11.026;2023-11-21T06:22:37;93644.41;;;-1.81;100.00
39223;BME280;24936;46.328;11.026;2023-11-21T06:25:03;93653.50;;;-1.74;100.00
39223;BME280;24936;46.328;11.026;2023-11-21T06:27:37;93653.97;;;-1.67;100.00
39223;BME280;24936;46.328;11.026;2023-11-21T06:30:03;93652.81;;;-1.62;100.00
39223;BME280;24936;46.328;11.026;2023-11-21T06:32:29;93655.00;;;-1.40;100.00
39223;BME280;24936;46.328;11.026;2023-11-21T06:34:56;93654.91;;;-1.38;100.00
39223;BME280;24936;46.328;11.026;2023-11-21T06:37:24;93651.56;;;-1.40;100.00
39223;BME280;24936;46.328;11.026;2023-11-21T06:39:50;93653.56;;;-1.45;100.00
39223;BME280;24936;46.328;11.026;2023-11-21T06:42:18;93650.44;;;-1.50;100.00
39223;BME280;24936;46.328;11.026;2023-11-21T06:44:47;93647.19;;;-1.54;100.00
39223;BME280;24936;46.328;11.026;2023-11-21T06:47:13;93650.44;;;-1.50;100.00
39223;BME280;24936;46.328;11.026;2023-11-21T06:49:39;93656.69;;;-1.55;100.00
39223;BME280;24936;46.328;11.026;2023-11-21T06:52:05;93654.75;;;-1.51;100.00
39223;BME280;24936;46.328;11.026;2023-11-21T06:54:33;93643.94;;;-1.58;100.00
39223;BME280;24936;46.328;11.026;2023-11-21T06:56:59;93653.53;;;-1.60;100.00
39223;BME280;24936;46.328;11.026;2023-11-21T06:59:24;93652.00;;;-1.48;100.00
39223;BME280;24936;46.328;11.026;2023-11-21T07:01:50;93656.09;;;-1.44;100.00
39223;BME280;24936;46.328;11.026;2023-11-21T07:04:16;93655.72;;;-1.38;100.00
39223;BME280;24936;46.328;11.026;2023-11-21T07:06:42;93656.88;;;-1.27;100.00
39223;BME280;24936;46.328;11.026;2023-11-21T07:09:08;93656.78;;;-1.26;100.00
39223;BME280;24936;46.328;11.026;2023-11-21T07:11:37;93656.81;;;-1.11;100.00
39223;BME280;24936;46.328;11.026;2023-11-21T07:14:05;93654.25;;;-0.97;100.00
39223;BME280;24936;46.328;11.026;2023-11-21T07:16:36;93648.31;;;-0.99;100.00
39223;BME280;24936;46.328;11.026;2023-11-21T07:19:06;93649.09;;;-0.82;100.00
39223;BME280;24936;46.328;11.026;2023-11-21T07:21:35;93660.34;;;-0.69;100.00
39223;BME280;24936;46.328;11.026;2023-11-21T07:24:02;93654.81;;;-0.63;100.00
39223;BME280;24936;46.328;11.026;2023-11-21T07:26:28;93654.72;;;-0.61;100.00
39223;BME280;24936;46.328;11.026;2023-11-21T07:28:54;93655.00;;;-0.51;100.00
39223;BME280;24936;46.328;11.026;2023-11-21T07:31:20;93654.72;;;-0.47;100.00
39223;BME280;24936;46.328;11.026;2023-11-21T07:33:46;93653.69;;;-0.44;100.00
39223;BME280;24936;46.328;11.026;2023-11-21T07:36:15;93649.38;;;-0.29;100.00
39223;BME280;24936;46.328;11.026;2023-11-21T07:38:41;93661.25;;;-0.26;100.00
39223;BME280;24936;46.328;11.026;2023-11-21T07:41:08;93661.09;;;-0.23;100.00
39223;BME280;24936;46.328;11.026;2023-11-21T07:43:35;93658.56;;;-0.25;100.00
39223;BME280;24936;46.328;11.026;2023-11-21T07:46:04;93671.13;;;-0.19;100.00
39223;BME280;24936;46.328;11.026;2023-11-21T07:48:30;93662.47;;;-0.18;100.00
39223;BME280;24936;46.328;11.026;2023-11-21T07:50:57;93661.09;;;-0.23;100.00
39223;BME280;24936;46.328;11.026;2023-11-21T07:53:26;93655.97;;;-0.25;100.00
39223;BME280;24936;46.328;11.026;2023-11-21T07:55:55;93650.53;;;-0.35;100.00
39223;BME280;24936;46.328;11.026;2023-11-21T07:58:21;93657.19;;;-0.31;100.00
39223;BME280;24936;46.328;11.026;2023-11-21T08:00:46;93656.91;;;-0.40;100.00
39223;BME280;24936;46.328;11.026;2023-11-21T08:03:15;93655.75;;;-0.49;100.00
39223;BME280;24936;46.328;11.026;2023-11-21T08:05:41;93661.00;;;-0.65;100.00
39223;BME280;24936;46.328;11.026;2023-11-21T08:08:06;93651.13;;;-0.58;100.00
39223;BME280;24936;46.328;11.026;2023-11-21T08:10:33;93639.41;;;-0.64;100.00
39223;BME280;24936;46.328;11.026;2023-11-21T08:12:58;93645.94;;;-0.73;100.00
39223;BME280;24936;46.328;11.026;2023-11-21T08:15:24;93649.19;;;-0.84;100.00
39223;BME280;24936;46.328;11.026;2023-11-21T08:17:49;93653.78;;;-0.89;100.00
39223;BME280;24936;46.328;11.026;2023-11-21T08:20:15;93652.41;;;-0.80;100.00
39223;BME280;24936;46.328;11.026;2023-11-21T08:22:42;93653.16;;;-0.64;100.00
39223;BME280;24936;46.328;11.026;2023-11-21T08:25:07;93648.44;;;-0.42;100.00
39223;BME280;24936;46.328;11.026;2023-11-21T08:27:33;93643.53;;;-0.33;100.00
39223;BME280;24936;46.328;11.026;2023-11-21T08:30:00;93638.56;;;-0.36;100.00
39223;BME280;24936;46.328;11.026;2023-11-21T08:32:26;93641.50;;;-0.42;100.00
39223;BME280;24936;46.328;11.026;2023-11-21T08:34:51;93634.31;;;-0.51;100.00
39223;BME280;24936;46.328;11.026;2023-11-21T08:37:17;93644.84;;;-0.40;100.00
39223;BME280;24936;46.328;11.026;2023-11-21T08:39:47;93624.94;;;-0.25;100.00
39223;BME280;24936;46.328;11.026;2023-11-21T08:42:13;93635.56;;;-0.15;100.00
39223;BME280;24936;46.328;11.026;2023-11-21T08:44:40;93636.13;;;-0.10;100.00
39223;BME280;24936;46.328;11.026;2023-11-21T08:47:06;93641.81;;;-0.05;100.00
39223;BME280;24936;46.328;11.026;2023-11-21T08:49:31;93634.25;;;-0.08;100.00
39223;BME280;24936;46.328;11.026;2023-11-21T08:51:58;93637.94;;;0.03;100.00
39223;BME280;24936;46.328;11.026;2023-11-21T08:54:25;93635.19;;;-0.09;100.00
39223;BME280;24936;46.328;11.026;2023-11-21T08:56:52;93638.53;;;-0.21;100.00
39223;BME280;24936;46.328;11.026;2023-11-21T08:59:17;93632.69;;;-0.10;100.00
39223;BME280;24936;46.328;11.026;2023-11-21T09:01:42;93640.38;;;-0.09;100.00
39223;BME280;24936;46.328;11.026;2023-11-21T09:04:08;93633.41;;;-0.08;100.00
39223;BME280;24936;46.328;11.026;2023-11-21T09:06:33;93632.16;;;0.12;100.00
39223;BME280;24936;46.328;11.026;2023-11-21T09:09:00;93632.47;;;0.35;100.00
39223;BME280;24936;46.328;11.026;2023-11-21T09:11:25;93628.59;;;0.68;100.00
39223;BME280;24936;46.328;11.026;2023-11-21T09:13:56;93622.72;;;0.91;100.00
39223;BME280;24936;46.328;11.026;2023-11-21T09:16:23;93617.78;;;1.14;100.00
39223;BME280;24936;46.328;11.026;2023-11-21T09:18:48;93615.56;;;1.34;100.00
39223;BME280;24936;46.328;11.026;2023-11-21T09:21:13;93613.44;;;2.39;100.00
39223;BME280;24936;46.328;11.026;2023-11-21T09:23:39;93607.75;;;2.70;100.00
39223;BME280;24936;46.328;11.026;2023-11-21T09:26:04;93610.59;;;2.67;100.00
39223;BME280;24936;46.328;11.026;2023-11-21T09:28:30;93619.31;;;3.01;100.00
39223;BME280;24936;46.328;11.026;2023-11-21T09:30:56;93612.38;;;3.13;100.00
39223;BME280;24936;46.328;11.026;2023-11-21T09:33:21;93619.59;;;3.21;100.00
39223;BME280;24936;46.328;11.026;2023-11-21T09:35:50;93623.53;;;2.31;100.00
39223;BME280;24936;46.328;11.026;2023-11-21T09:38:16;93632.16;;;2.07;100.00
39223;BME280;24936;46.328;11.026;2023-11-21T09:40:41;93628.81;;;2.42;100.00
39223;BME280;24936;46.328;11.026;2023-11-21T09:43:09;93619.78;;;2.95;100.00
39223;BME280;24936;46.328;11.026;2023-11-21T09:45:46;93613.59;;;3.43;100.00
39223;BME280;24936;46.328;11.026;2023-11-21T09:48:14;93616.66;;;3.48;100.00
39223;BME280;24936;46.328;11.026;2023-11-21T09:50:42;93614.13;;;5.13;100.00
39223;BME280;24936;46.328;11.026;2023-11-21T09:53:27;93606.81;;;6.40;100.00
39223;BME280;24936;46.328;11.026;2023-11-21T09:55:55;93609.56;;;7.17;100.00
39223;BME280;24936;46.328;11.026;2023-11-21T09:58:21;93600.53;;;6.02;100.00
39223;BME280;24936;46.328;11.026;2023-11-21T10:00:53;93598.06;;;5.17;100.00
39223;BME280;24936;46.328;11.026;2023-11-21T10:03:19;93590.88;;;4.88;100.00
39223;BME280;24936;46.328;11.026;2023-11-21T10:05:45;93578.28;;;5.36;100.00
39223;BME280;24936;46.328;11.026;2023-11-21T10:08:12;93571.78;;;5.61;100.00
39223;BME280;24936;46.328;11.026;2023-11-21T10:10:43;93574.41;;;5.71;100.00
39223;BME280;24936;46.328;11.026;2023-11-21T10:13:12;93563.47;;;5.77;100.00
39223;BME280;24936;46.328;11.026;2023-11-21T10:15:38;93560.44;;;5.82;100.00
39223;BME280;24936;46.328;11.026;2023-11-21T10:18:04;93545.88;;;6.40;100.00
39223;BME280;24936;46.328;11.026;2023-11-21T10:20:32;93549.69;;;6.26;100.00
39223;BME280;24936;46.328;11.026;2023-11-21T10:22:59;93550.13;;;5.80;100.00
39223;BME280;24936;46.328;11.026;2023-11-21T10:25:27;93547.16;;;5.54;100.00
39223;BME280;24936;46.328;11.026;2023-11-21T10:27:57;93542.13;;;5.72;100.00
39223;BME280;24936;46.328;11.026;2023-11-21T10:30:35;93544.84;;;5.61;100.00
39223;BME280;24936;46.328;11.026;2023-11-21T10:33:04;93543.50;;;5.35;100.00
39223;BME280;24936;46.328;11.026;2023-11-21T10:35:42;93547.13;;;4.92;100.00
39223;BME280;24936;46.328;11.026;2023-11-21T10:38:08;93547.44;;;4.99;100.00
39223;BME280;24936;46.328;11.026;2023-11-21T10:40:38;93535.53;;;5.06;100.00
39223;BME280;24936;46.328;11.026;2023-11-21T10:43:08;93522.50;;;7.15;100.00
39223;BME280;24936;46.328;11.026;2023-11-21T10:45:35;93514.28;;;8.04;100.00
39223;BME280;24936;46.328;11.026;2023-11-21T10:48:05;93509.69;;;8.70;100.00
39223;BME280;24936;46.328;11.026;2023-11-21T10:50:33;93504.06;;;8.29;100.00
39223;BME280;24936;46.328;11.026;2023-11-21T10:53:01;93499.03;;;7.89;100.00
39223;BME280;24936;46.328;11.026;2023-11-21T10:55:27;93500.63;;;7.82;100.00
39223;BME280;24936;46.328;11.026;2023-11-21T10:57:54;93499.44;;;7.39;100.00
39223;BME280;24936;46.328;11.026;2023-11-21T11:00:23;93494.72;;;8.16;100.00
39223;BME280;24936;46.328;11.026;2023-11-21T11:02:51;93492.19;;;8.06;100.00
39223;BME280;24936;46.328;11.026;2023-11-21T11:05:20;93486.06;;;7.98;100.00
39223;BME280;24936;46.328;11.026;2023-11-21T11:07:59;93487.47;;;8.10;100.00
39223;BME280;24936;46.328;11.026;2023-11-21T11:10:28;93485.63;;;7.74;100.00
39223;BME280;24936;46.328;11.026;2023-11-21T11:12:55;93483.72;;;6.91;100.00
39223;BME280;24936;46.328;11.026;2023-11-21T11:15:23;93483.34;;;6.96;100.00
39223;BME280;24936;46.328;11.026;2023-11-21T11:17:48;93485.38;;;7.40;100.00
39223;BME280;24936;46.328;11.026;2023-11-21T11:20:16;93485.69;;;7.27;100.00
39223;BME280;24936;46.328;11.026;2023-11-21T11:25:58;93477.69;;;7.38;100.00
39223;BME280;24936;46.328;11.026;2023-11-21T11:28:37;93462.34;;;7.43;100.00
39223;BME280;24936;46.328;11.026;2023-11-21T11:31:27;93461.38;;;7.72;100.00
39223;BME280;24936;46.328;11.026;2023-11-21T11:37:05;93455.63;;;10.82;100.00
39223;BME280;24936;46.328;11.026;2023-11-21T11:39:36;93460.88;;;11.63;100.00
39223;BME280;24936;46.328;11.026;2023-11-21T11:42:06;93453.03;;;11.46;100.00
39223;BME280;24936;46.328;11.026;2023-11-21T11:50:05;93451.38;;;10.56;100.00
39223;BME280;24936;46.328;11.026;2023-11-21T11:55:18;93429.44;;;9.55;100.00
39223;BME280;24936;46.328;11.026;2023-11-21T11:57:45;93438.97;;;8.60;100.00
39223;BME280;24936;46.328;11.026;2023-11-21T12:02:42;93433.81;;;9.81;100.00
39223;BME280;24936;46.328;11.026;2023-11-21T12:05:13;93437.56;;;10.62;100.00
39223;BME280;24936;46.328;11.026;2023-11-21T12:07:46;93437.16;;;11.15;100.00
39223;BME280;24936;46.328;11.026;2023-11-21T12:10:16;93436.13;;;11.24;100.00
39223;BME280;24936;46.328;11.026;2023-11-21T12:12:47;93429.91;;;11.97;100.00
39223;BME280;24936;46.328;11.026;2023-11-21T12:15:13;93430.38;;;11.69;100.00
39223;BME280;24936;46.328;11.026;2023-11-21T12:17:41;93428.75;;;11.28;100.00
39223;BME280;24936;46.328;11.026;2023-11-21T12:20:07;93419.81;;;11.77;100.00
39223;BME280;24936;46.328;11.026;2023-11-21T12:22:49;93429.69;;;12.15;100.00
39223;BME280;24936;46.328;11.026;2023-11-21T12:25:20;93428.28;;;12.89;100.00
39223;BME280;24936;46.328;11.026;2023-11-21T12:27:48;93427.94;;;13.45;100.00
39223;BME280;24936;46.328;11.026;2023-11-21T12:30:20;93422.50;;;12.32;100.00
39223;BME280;24936;46.328;11.026;2023-11-21T12:32:50;93416.03;;;12.58;100.00
39223;BME280;24936;46.328;11.026;2023-11-21T12:35:20;93410.81;;;11.94;100.00
39223;BME280;24936;46.328;11.026;2023-11-21T12:37:47;93413.25;;;11.73;100.00
39223;BME280;24936;46.328;11.026;2023-11-21T12:40:13;93407.00;;;11.66;100.00
39223;BME280;24936;46.328;11.026;2023-11-21T12:42:47;93413.63;;;11.93;100.00
39223;BME280;24936;46.328;11.026;2023-11-21T12:47:50;93400.47;;;11.13;100.00
39223;BME280;24936;46.328;11.026;2023-11-21T12:50:21;93399.06;;;10.20;100.00
39223;BME280;24936;46.328;11.026;2023-11-21T12:52:57;93399.53;;;10.98;100.00
39223;BME280;24936;46.328;11.026;2023-11-21T12:55:23;93391.78;;;9.81;100.00
39223;BME280;24936;46.328;11.026;2023-11-21T12:57:53;93397.78;;;9.56;100.00
39223;BME280;24936;46.328;11.026;2023-11-21T13:00:33;93403.00;;;10.32;100.00
39223;BME280;24936;46.328;11.026;2023-11-21T13:03:03;93395.31;;;10.39;100.00